Time,TemperatureF,DewpointF,PressureIn,WindDirection,WindDirectionDegrees,WindSpeedMPH,WindSpeedGustMPH,Humidity,HourlyPrecipIn,Conditions,Clouds,dailyrainin,SolarRadiationWatts/m^2,SoftwareType,DateUTC
2013-02-08 00:01:00,27.0,24.0,-100.00,SW,233,1.0,4.0,88,0.00,,,0.00,1.000000,,2013-02-08 08:01:00,
2013-02-08 00:32:00,28.0,23.0,-100.00,SSW,212,3.0,4.0,82,0.00,,,0.00,1.000000,,2013-02-08 08:32:00,
2013-02-08 00:42:00,28.0,23.0,-100.00,SSW,212,3.0,4.0,82,0.00,,,0.00,1.000000,,2013-02-08 08:42:00,
2013-02-08 00:52:00,28.0,23.0,-100.00,SSW,212,3.0,4.0,82,0.00,,,0.00,1.000000,,2013-02-08 08:52:00,
2013-02-08 01:02:00,28.0,23.0,-100.00,SSW,212,3.0,4.0,82,0.00,,,0.00,1.000000,,2013-02-08 09:02:00,
2013-02-08 01:32:00,27.0,24.0,-100.00,SSW,208,3.0,5.0,88,0.00,,,0.00,1.000000,,2013-02-08 09:32:00,
2013-02-08 01:42:00,27.0,24.0,-100.00,SSW,208,3.0,5.0,88,0.00,,,0.00,1.000000,,2013-02-08 09:42:00,
2013-02-08 01:52:00,27.0,24.0,-100.00,SSW,208,3.0,5.0,88,0.00,,,0.00,1.000000,,2013-02-08 09:52:00,
2013-02-08 02:01:00,27.0,24.0,-100.00,SSW,208,3.0,5.0,88,0.00,,,0.00,1.000000,,2013-02-08 10:01:00,
2013-02-08 02:32:00,25.0,22.0,-100.00,South,169,2.0,4.0,88,0.00,,,0.00,1.000000,,2013-02-08 10:32:00,
2013-02-08 02:42:00,25.0,22.0,-100.00,South,169,2.0,4.0,88,0.00,,,0.00,1.000000,,2013-02-08 10:42:00,
2013-02-08 02:52:00,25.0,22.0,-100.00,South,169,2.0,4.0,88,0.00,,,0.00,1.000000,,2013-02-08 10:52:00,
2013-02-08 03:01:00,25.0,22.0,-100.00,South,169,2.0,4.0,88,0.00,,,0.00,1.000000,,2013-02-08 11:01:00,
2013-02-08 03:32:00,26.0,23.0,-100.00,SW,216,6.0,9.0,90,0.00,,,0.00,1.000000,,2013-02-08 11:32:00,
2013-02-08 03:42:00,26.0,23.0,-100.00,SW,216,6.0,9.0,90,0.00,,,0.00,1.000000,,2013-02-08 11:42:00,
2013-02-08 03:52:00,26.0,23.0,-100.00,SW,216,6.0,9.0,90,0.00,,,0.00,1.000000,,2013-02-08 11:52:00,
2013-02-08 04:01:00,26.0,23.0,-100.00,SW,216,6.0,9.0,90,0.00,,,0.00,1.000000,,2013-02-08 12:01:00,
2013-02-08 04:33:00,23.0,21.0,-100.00,WNW,287,1.0,6.0,90,0.00,,,0.00,1.000000,,2013-02-08 12:33:00,
2013-02-08 04:42:00,23.0,21.0,-100.00,WNW,287,1.0,6.0,90,0.00,,,0.00,1.000000,,2013-02-08 12:42:00,
2013-02-08 04:52:00,23.0,21.0,-100.00,WNW,287,1.0,6.0,90,0.00,,,0.00,1.000000,,2013-02-08 12:52:00,
2013-02-08 05:01:00,23.0,21.0,-100.00,WNW,287,1.0,6.0,90,0.00,,,0.00,1.000000,,2013-02-08 13:01:00,
2013-02-08 05:32:00,23.0,21.0,-100.00,SW,217,3.0,5.0,93,0.00,,,0.00,1.000000,,2013-02-08 13:32:00,
2013-02-08 05:42:00,23.0,21.0,-100.00,SW,217,3.0,5.0,93,0.00,,,0.00,1.000000,,2013-02-08 13:42:00,
2013-02-08 05:52:00,23.0,21.0,-100.00,SW,217,3.0,5.0,93,0.00,,,0.00,1.000000,,2013-02-08 13:52:00,
2013-02-08 06:01:00,23.0,21.0,-100.00,SW,217,3.0,5.0,93,0.00,,,0.00,1.000000,,2013-02-08 14:01:00,
2013-02-08 06:32:00,21.0,19.0,-100.00,NNE,31,2.0,6.0,92,0.00,,,0.00,1.000000,,2013-02-08 14:32:00,
2013-02-08 06:42:00,21.0,19.0,-100.00,NNE,31,2.0,6.0,92,0.00,,,0.00,1.000000,,2013-02-08 14:42:00,
2013-02-08 06:52:00,21.0,19.0,-100.00,NNE,31,2.0,6.0,92,0.00,,,0.00,1.000000,,2013-02-08 14:52:00,
2013-02-08 07:01:00,21.0,19.0,-100.00,NNE,31,2.0,6.0,92,0.00,,,0.00,1.000000,,2013-02-08 15:01:00,
2013-02-08 07:32:00,20.0,18.0,-100.00,North,11,3.0,4.0,93,0.00,,,0.00,1.000000,,2013-02-08 15:32:00,
2013-02-08 07:42:00,20.0,18.0,-100.00,North,11,3.0,4.0,93,0.00,,,0.00,1.000000,,2013-02-08 15:42:00,
2013-02-08 07:52:00,20.0,18.0,-100.00,North,11,3.0,4.0,93,0.00,,,0.00,1.000000,,2013-02-08 15:52:00,
2013-02-08 08:01:00,20.0,18.0,-100.00,North,11,3.0,4.0,93,0.00,,,0.00,1.000000,,2013-02-08 16:01:00,
2013-02-08 08:32:00,20.0,18.0,-100.00,North,357,2.0,4.0,93,0.00,,,0.00,13.000000,,2013-02-08 16:32:00,
2013-02-08 08:42:00,20.0,18.0,-100.00,North,357,2.0,4.0,93,0.00,,,0.00,13.000000,,2013-02-08 16:42:00,
2013-02-08 08:52:00,20.0,18.0,-100.00,North,357,2.0,4.0,93,0.00,,,0.00,13.000000,,2013-02-08 16:52:00,
2013-02-08 09:03:00,20.0,18.0,-100.00,North,357,2.0,4.0,93,0.00,,,0.00,13.000000,,2013-02-08 17:03:00,
2013-02-08 09:33:00,30.0,26.0,-100.00,South,172,2.0,4.0,85,0.00,,,0.00,190.000000,,2013-02-08 17:33:00,
2013-02-08 09:42:00,30.0,26.0,-100.00,South,172,2.0,4.0,85,0.00,,,0.00,190.000000,,2013-02-08 17:42:00,
2013-02-08 09:52:00,30.0,26.0,-100.00,South,172,2.0,4.0,85,0.00,,,0.00,190.000000,,2013-02-08 17:52:00,
2013-02-08 10:01:00,30.0,26.0,-100.00,South,172,2.0,4.0,85,0.00,,,0.00,190.000000,,2013-02-08 18:01:00,
2013-02-08 10:36:00,35.0,28.0,-100.00,SE,139,2.0,4.0,74,0.00,,,0.00,341.000000,,2013-02-08 18:36:00,
2013-02-08 10:44:00,35.0,28.0,-100.00,SE,139,2.0,4.0,74,0.00,,,0.00,341.000000,,2013-02-08 18:44:00,
2013-02-08 10:52:00,35.0,28.0,-100.00,SE,139,2.0,4.0,74,0.00,,,0.00,341.000000,,2013-02-08 18:52:00,
2013-02-08 11:01:00,35.0,28.0,-100.00,SE,139,2.0,4.0,74,0.00,,,0.00,341.000000,,2013-02-08 19:01:00,
2013-02-08 11:33:00,38.0,27.0,-100.00,ENE,65,2.0,5.0,64,0.00,,,0.00,433.000000,,2013-02-08 19:33:00,
2013-02-08 11:42:00,38.0,27.0,-100.00,ENE,65,2.0,5.0,64,0.00,,,0.00,433.000000,,2013-02-08 19:42:00,
2013-02-08 11:52:00,38.0,27.0,-100.00,ENE,65,2.0,5.0,64,0.00,,,0.00,433.000000,,2013-02-08 19:52:00,
2013-02-08 12:01:00,38.0,27.0,-100.00,ENE,65,2.0,5.0,64,0.00,,,0.00,433.000000,,2013-02-08 20:01:00,
2013-02-08 12:32:00,42.0,28.0,-100.00,East,85,4.0,6.0,57,0.00,,,-99.99,483.000000,,2013-02-08 20:32:00,
2013-02-08 12:42:00,42.0,28.0,-100.00,East,85,4.0,6.0,57,0.00,,,-99.99,483.000000,,2013-02-08 20:42:00,
2013-02-08 12:52:00,42.0,28.0,-100.00,East,85,4.0,6.0,57,0.00,,,-99.99,483.000000,,2013-02-08 20:52:00,
2013-02-08 13:01:00,42.0,28.0,-100.00,East,85,4.0,6.0,57,0.00,,,-99.99,483.000000,,2013-02-08 21:01:00,
2013-02-08 13:33:00,45.0,28.0,-100.00,East,80,3.0,6.0,51,0.00,,,0.00,489.000000,,2013-02-08 21:33:00,
2013-02-08 13:42:00,45.0,28.0,-100.00,East,80,3.0,6.0,51,0.00,,,0.00,489.000000,,2013-02-08 21:42:00,
2013-02-08 13:52:00,45.0,28.0,-100.00,East,80,3.0,6.0,51,0.00,,,0.00,489.000000,,2013-02-08 21:52:00,
2013-02-08 14:01:00,45.0,28.0,-100.00,East,80,3.0,6.0,51,0.00,,,0.00,489.000000,,2013-02-08 22:01:00,
2013-02-08 14:32:00,47.0,26.0,-100.00,ENE,72,5.0,10.0,43,0.00,,,0.00,447.000000,,2013-02-08 22:32:00,
2013-02-08 14:42:00,47.0,26.0,-100.00,ENE,72,5.0,10.0,43,0.00,,,0.00,447.000000,,2013-02-08 22:42:00,
2013-02-08 14:52:00,47.0,26.0,-100.00,ENE,72,5.0,10.0,43,0.00,,,0.00,447.000000,,2013-02-08 22:52:00,
2013-02-08 15:01:00,47.0,26.0,-100.00,ENE,72,5.0,10.0,43,0.00,,,0.00,447.000000,,2013-02-08 23:01:00,
2013-02-08 15:32:00,48.0,24.0,-100.00,ENE,63,5.0,9.0,39,0.00,,,0.00,357.000000,,2013-02-08 23:32:00,
2013-02-08 15:42:00,48.0,24.0,-100.00,ENE,63,5.0,9.0,39,0.00,,,0.00,357.000000,,2013-02-08 23:42:00,
2013-02-08 15:52:00,48.0,24.0,-100.00,ENE,63,5.0,9.0,39,0.00,,,0.00,357.000000,,2013-02-08 23:52:00,
2013-02-08 16:01:00,48.0,24.0,-100.00,ENE,63,5.0,9.0,39,0.00,,,0.00,357.000000,,2013-02-09 00:01:00,
2013-02-08 16:32:00,48.0,23.0,-100.00,East,79,4.0,9.0,37,0.00,,,0.00,232.000000,,2013-02-09 00:32:00,
2013-02-08 16:42:00,48.0,23.0,-100.00,East,79,4.0,9.0,37,0.00,,,0.00,232.000000,,2013-02-09 00:42:00,
2013-02-08 16:52:00,48.0,23.0,-100.00,East,79,4.0,9.0,37,0.00,,,0.00,232.000000,,2013-02-09 00:52:00,
2013-02-08 17:01:00,48.0,23.0,-100.00,East,79,4.0,9.0,37,0.00,,,0.00,232.000000,,2013-02-09 01:01:00,
2013-02-08 17:32:00,42.0,22.0,-100.00,NNW,338,3.0,6.0,44,0.00,,,-99.99,50.000000,,2013-02-09 01:32:00,
2013-02-08 17:42:00,42.0,22.0,-100.00,NNW,338,3.0,6.0,44,0.00,,,-99.99,50.000000,,2013-02-09 01:42:00,
2013-02-08 17:52:00,42.0,22.0,-100.00,NNW,338,3.0,6.0,44,0.00,,,-99.99,50.000000,,2013-02-09 01:52:00,
2013-02-08 18:01:00,42.0,22.0,-100.00,NNW,338,3.0,6.0,44,0.00,,,-99.99,50.000000,,2013-02-09 02:01:00,
2013-02-08 18:32:00,39.0,23.0,-100.00,NNW,339,3.0,8.0,53,0.00,,,0.00,3.000000,,2013-02-09 02:32:00,
2013-02-08 18:42:00,39.0,23.0,-100.00,NNW,339,3.0,8.0,53,0.00,,,0.00,3.000000,,2013-02-09 02:42:00,
2013-02-08 18:52:00,39.0,23.0,-100.00,NNW,339,3.0,8.0,53,0.00,,,0.00,3.000000,,2013-02-09 02:52:00,
2013-02-08 19:01:00,39.0,23.0,-100.00,NNW,339,3.0,8.0,53,0.00,,,0.00,3.000000,,2013-02-09 03:01:00,
2013-02-08 19:32:00,36.0,23.0,-100.00,North,4,5.0,9.0,59,0.00,,,0.00,1.000000,,2013-02-09 03:32:00,
2013-02-08 19:42:00,36.0,23.0,-100.00,North,4,5.0,9.0,59,0.00,,,0.00,1.000000,,2013-02-09 03:42:00,
2013-02-08 19:52:00,36.0,23.0,-100.00,North,4,5.0,9.0,59,0.00,,,0.00,1.000000,,2013-02-09 03:52:00,
2013-02-08 20:02:00,36.0,23.0,-100.00,North,4,5.0,9.0,59,0.00,,,0.00,1.000000,,2013-02-09 04:02:00,
2013-02-08 20:32:00,35.0,24.0,-100.00,North,351,6.0,15.0,64,0.00,,,0.00,1.000000,,2013-02-09 04:32:00,
2013-02-08 20:42:00,35.0,24.0,-100.00,North,351,6.0,15.0,64,0.00,,,0.00,1.000000,,2013-02-09 04:42:00,
2013-02-08 20:52:00,35.0,24.0,-100.00,North,351,6.0,15.0,64,0.00,,,0.00,1.000000,,2013-02-09 04:52:00,
2013-02-08 21:02:00,35.0,24.0,-100.00,North,351,6.0,15.0,64,0.00,,,0.00,1.000000,,2013-02-09 05:02:00,
2013-02-08 21:32:00,33.0,23.0,-100.00,North,10,2.0,14.0,67,0.00,,,0.00,1.000000,,2013-02-09 05:32:00,
2013-02-08 21:42:00,33.0,23.0,-100.00,North,10,2.0,14.0,67,0.00,,,0.00,1.000000,,2013-02-09 05:42:00,
2013-02-08 21:52:00,33.0,23.0,-100.00,North,10,2.0,14.0,67,0.00,,,0.00,1.000000,,2013-02-09 05:52:00,
2013-02-08 22:01:00,33.0,23.0,-100.00,North,10,2.0,14.0,67,0.00,,,0.00,1.000000,,2013-02-09 06:01:00,
2013-02-08 22:32:00,32.0,24.0,-100.00,SSW,197,3.0,5.0,72,0.00,,,0.00,1.000000,,2013-02-09 06:32:00,
2013-02-08 22:42:00,32.0,24.0,-100.00,SSW,197,3.0,5.0,72,0.00,,,0.00,1.000000,,2013-02-09 06:42:00,
2013-02-08 22:52:00,32.0,24.0,-100.00,SSW,197,3.0,5.0,72,0.00,,,0.00,1.000000,,2013-02-09 06:52:00,
2013-02-08 23:01:00,32.0,24.0,-100.00,SSW,197,3.0,5.0,72,0.00,,,0.00,1.000000,,2013-02-09 07:01:00,
2013-02-08 23:32:00,31.0,24.0,-100.00,SSW,193,3.0,5.0,74,0.00,,,0.00,1.000000,,2013-02-09 07:32:00,
2013-02-08 23:42:00,31.0,24.0,-100.00,SSW,193,3.0,5.0,74,0.00,,,0.00,1.000000,,2013-02-09 07:42:00,
2013-02-08 23:52:00,31.0,24.0,-100.00,SSW,193,3.0,5.0,74,0.00,,,0.00,1.000000,,2013-02-09 07:52:00,